Macklin, Canada
Current Conditions -  °F | °C
As of 11:00 PM on Saturday 22 Nov 2014 (Local Time) from CYKY Reporting Station
Light Snow Light Snow  
Wind Chill:   Ceiling: 800
Heat Index: 21°   Visibility: 3mi
Dew Point: 18°   Wind: 16mph
Humidity: 86%   Direction: 340°NNW
Pressure: 29.44"   Gusts: NA
Location:  52.33°N, 109.95°W
Report Text: CYKY 230500Z 34014KT 3SM -SN DRSN OVC008 M06/M08 A2944 RMK SC8 SLP002
Loading
Personal Weather Stations






























Interactive Weather Map New forecast layout! Learn more

10-Day Weather Forecast

Advertisements
Track Severe Weather on mobile